Time;durP1;ratioP1;P1;durP2;ratioP2;P2;SDS_P1;SDS_P2;PMS_P1;PMS_P2;Temp;Humidity;BMP_temperature;BMP_pressure;BME280_temperature;BME280_humidity;BME280_pressure;Samples;Min_cycle;Max_cycle;Signal;HPM_P1;HPM_P2
2023/09/06 00:02:19;;;;;;;0.33;0.33;;;18.90;99.90;;;;;;5117360;28;20483;-80
2023/09/06 00:04:45;;;;;;;0.20;0.20;;;18.90;99.90;;;;;;5118258;28;20126;-80
2023/09/06 00:07:11;;;;;;;0.43;0.43;;;18.90;99.90;;;;;;5117338;28;20382;-81
2023/09/06 00:09:36;;;;;;;0.33;0.33;;;18.80;99.90;;;;;;5117505;28;20139;-81
2023/09/06 00:12:02;;;;;;;0.30;0.30;;;18.80;99.90;;;;;;5117479;28;20088;-80
2023/09/06 00:14:29;;;;;;;0.30;0.30;;;18.80;99.90;;;;;;5116045;28;20413;-81
2023/09/06 00:16:55;;;;;;;;;;;18.70;99.90;;;;;;5117451;28;20088;-81
2023/09/06 00:19:20;;;;;;;0.40;0.30;;;18.70;99.90;;;;;;5116436;28;20006;-80
2023/09/06 00:21:47;;;;;;;0.30;0.30;;;18.70;99.90;;;;;;5117152;28;20075;-80
2023/09/06 00:24:14;;;;;;;0.32;0.30;;;18.70;99.90;;;;;;5117021;28;20051;-80
2023/09/06 00:26:40;;;;;;;0.30;0.30;;;18.60;99.90;;;;;;5116581;28;20043;-80
2023/09/06 00:29:09;;;;;;;0.43;0.43;;;18.60;99.90;;;;;;5116782;28;20531;-81
2023/09/06 00:31:35;;;;;;;0.32;0.32;;;18.60;99.90;;;;;;5116754;28;20039;-81
2023/09/06 00:34:02;;;;;;;0.30;0.30;;;18.60;99.90;;;;;;5116839;28;20127;-80
2023/09/06 00:36:32;;;;;;;0.30;0.30;;;18.60;99.90;;;;;;5116708;28;20055;-81
2023/09/06 00:38:59;;;;;;;0.30;0.30;;;18.60;99.90;;;;;;5117047;28;20542;-80
2023/09/06 00:41:26;;;;;;;0.40;0.40;;;18.50;99.90;;;;;;5116693;28;20036;-81
2023/09/06 00:43:51;;;;;;;;;;;18.50;99.90;;;;;;5117047;28;20075;-80
2023/09/06 00:46:19;;;;;;;0.40;0.40;;;18.50;99.90;;;;;;5116568;28;19967;-80
2023/09/06 00:48:50;;;;;;;0.30;0.30;;;18.40;99.90;;;;;;5116416;28;20463;-81
2023/09/06 00:51:16;;;;;;;0.30;0.30;;;18.40;99.90;;;;;;5116550;28;20043;-81
2023/09/06 00:53:42;;;;;;;;;;;18.40;99.90;;;;;;5116833;28;20047;-81
2023/09/06 00:56:08;;;;;;;0.40;0.40;;;18.30;99.90;;;;;;5116300;28;19922;-81
2023/09/06 00:58:35;;;;;;;0.30;0.30;;;18.30;99.90;;;;;;5116420;28;20379;-81
2023/09/06 01:01:06;;;;;;;0.30;0.30;;;18.30;99.90;;;;;;5116138;28;20544;-81
2023/09/06 01:03:32;;;;;;;0.65;0.32;;;18.20;99.90;;;;;;5116316;28;20048;-81
2023/09/06 01:06:05;;;;;;;0.28;0.28;;;18.20;99.90;;;;;;5116274;28;20043;-81
2023/09/06 01:08:39;;;;;;;0.20;0.20;;;18.20;99.90;;;;;;5116347;28;20048;-80
2023/09/06 01:11:18;;;;;;;0.20;0.20;;;18.20;99.90;;;;;;5116061;28;20075;-81
2023/09/06 01:13:46;;;;;;;0.30;0.30;;;18.10;99.90;;;;;;5116114;28;20443;-80
2023/09/06 01:16:15;;;;;;;0.50;0.50;;;18.10;99.90;;;;;;5116295;28;20039;-81
2023/09/06 01:18:42;;;;;;;0.30;0.30;;;18.10;99.90;;;;;;5115999;28;20047;-80
2023/09/06 01:21:11;;;;;;;0.30;0.30;;;18.00;99.90;;;;;;5116032;28;20095;-82
2023/09/06 01:23:42;;;;;;;0.30;0.30;;;18.10;99.90;;;;;;5114930;28;20114;-80
2023/09/06 01:26:08;;;;;;;0.30;0.30;;;18.00;99.90;;;;;;5115742;28;20028;-81
2023/09/06 01:28:34;;;;;;;0.30;0.30;;;18.00;99.90;;;;;;5115829;28;20508;-80
2023/09/06 01:31:00;;;;;;;0.30;0.30;;;18.00;99.90;;;;;;5116039;28;20035;-80
2023/09/06 01:33:29;;;;;;;0.30;0.30;;;18.00;99.90;;;;;;5116006;28;20047;-80
2023/09/06 01:35:56;;;;;;;0.30;0.30;;;17.90;99.90;;;;;;5115660;28;20039;-80
2023/09/06 01:38:22;;;;;;;0.20;0.20;;;17.90;99.90;;;;;;5114674;28;20105;-81
2023/09/06 01:40:47;;;;;;;0.83;0.50;;;17.90;99.90;;;;;;5116078;28;20463;-80
2023/09/06 01:43:13;;;;;;;0.30;0.30;;;17.90;99.90;;;;;;5114311;28;20031;-80
2023/09/06 01:45:50;;;;;;;0.30;0.30;;;17.80;99.90;;;;;;5115133;28;20043;-80
2023/09/06 01:48:20;;;;;;;0.50;0.50;;;17.80;99.90;;;;;;5115439;28;20274;-80
2023/09/06 01:50:47;;;;;;;0.30;0.30;;;17.70;99.90;;;;;;5115297;28;20036;-81
2023/09/06 01:53:13;;;;;;;;;;;17.70;99.90;;;;;;5115732;28;20039;-81
2023/09/06 01:55:41;;;;;;;0.43;0.43;;;17.70;99.90;;;;;;5115978;28;19922;-80
2023/09/06 01:58:08;;;;;;;0.30;0.30;;;17.70;99.90;;;;;;5115031;28;20039;-80
2023/09/06 02:00:36;;;;;;;;;;;17.70;99.90;;;;;;5115543;28;20043;-81
2023/09/06 02:03:01;;;;;;;0.30;0.30;;;17.70;99.90;;;;;;5115282;28;19915;-80
2023/09/06 02:05:30;;;;;;;0.30;0.30;;;17.70;99.90;;;;;;5115181;28;20044;-80
2023/09/06 02:07:55;;;;;;;0.30;0.30;;;17.60;99.90;;;;;;5115338;28;20047;-81
2023/09/06 02:10:21;;;;;;;0.30;0.30;;;17.60;99.90;;;;;;5115183;28;20039;-81
2023/09/06 02:12:47;;;;;;;0.30;0.30;;;17.60;99.90;;;;;;5115076;28;20124;-81
2023/09/06 02:15:14;;;;;;;0.30;0.30;;;17.60;99.90;;;;;;5114894;28;20045;-81
2023/09/06 02:17:44;;;;;;;0.35;0.35;;;17.60;99.90;;;;;;5114752;28;20114;-80
2023/09/06 02:20:20;;;;;;;0.20;0.20;;;17.60;99.90;;;;;;5114827;28;20035;-81
2023/09/06 02:22:51;;;;;;;0.30;0.30;;;17.60;99.90;;;;;;5114717;28;20485;-81
2023/09/06 02:25:21;;;;;;;0.40;0.40;;;17.50;99.90;;;;;;5114617;28;20046;-80
2023/09/06 02:27:48;;;;;;;0.43;0.43;;;17.50;99.90;;;;;;5113725;28;20489;-80
2023/09/06 02:30:14;;;;;;;0.30;0.30;;;17.50;99.90;;;;;;5113661;28;20436;-81
2023/09/06 02:32:43;;;;;;;0.40;0.40;;;17.40;99.90;;;;;;5114607;28;20031;-81
2023/09/06 02:35:09;;;;;;;0.30;0.30;;;17.40;99.90;;;;;;5114555;28;20086;-80
2023/09/06 02:37:35;;;;;;;0.20;0.20;;;17.40;99.90;;;;;;5114913;28;20039;-81
2023/09/06 02:40:06;;;;;;;0.38;0.38;;;17.40;99.90;;;;;;5114516;28;20542;-81
2023/09/06 02:42:32;;;;;;;0.50;0.50;;;17.30;99.90;;;;;;5113654;28;20078;-80
2023/09/06 02:44:57;;;;;;;0.60;0.50;;;17.30;99.90;;;;;;5114488;28;20050;-80
2023/09/06 02:47:25;;;;;;;0.30;0.30;;;17.30;99.90;;;;;;5114341;28;20122;-80
2023/09/06 02:49:55;;;;;;;0.40;0.40;;;17.20;99.90;;;;;;5114201;28;20044;-80
2023/09/06 02:52:30;;;;;;;0.38;0.38;;;17.30;99.90;;;;;;5114543;28;20039;-81
2023/09/06 02:54:57;;;;;;;0.35;0.35;;;17.20;99.90;;;;;;5114143;28;20039;-80
2023/09/06 02:57:25;;;;;;;0.20;0.20;;;17.20;99.90;;;;;;5113968;28;20027;-81
2023/09/06 02:59:52;;;;;;;0.20;0.20;;;17.20;99.90;;;;;;5114188;28;20042;-80
2023/09/06 03:02:22;;;;;;;0.55;0.40;;;17.20;99.90;;;;;;5114257;28;20040;-81
2023/09/06 03:04:51;;;;;;;0.47;0.40;;;17.20;99.90;;;;;;5114613;28;20089;-81
2023/09/06 03:07:19;;;;;;;0.57;0.40;;;17.10;99.90;;;;;;5114144;28;20114;-80
2023/09/06 03:09:44;;;;;;;0.20;0.20;;;17.10;99.90;;;;;;5113894;28;20101;-80
2023/09/06 03:12:14;;;;;;;0.40;0.40;;;17.10;99.90;;;;;;5114068;28;20079;-80
2023/09/06 03:14:44;;;;;;;0.30;0.30;;;17.10;99.90;;;;;;5114033;28;20452;-81
2023/09/06 03:17:22;;;;;;;0.30;0.30;;;17.10;99.90;;;;;;5114147;28;20047;-80
2023/09/06 03:19:53;;;;;;;0.30;0.30;;;17.10;99.90;;;;;;5114516;28;20050;-80
2023/09/06 03:22:21;;;;;;;0.82;0.50;;;17.10;99.90;;;;;;5114146;28;20486;-81
2023/09/06 03:24:48;;;;;;;0.30;0.30;;;17.10;99.90;;;;;;5113918;28;20450;-80
2023/09/06 03:27:17;;;;;;;0.35;0.35;;;17.00;99.90;;;;;;5113900;28;20079;-81
2023/09/06 03:29:50;;;;;;;0.30;0.30;;;17.00;99.90;;;;;;5114409;28;20128;-80
2023/09/06 03:32:17;;;;;;;0.30;0.30;;;17.00;99.90;;;;;;5113972;28;20079;-80
2023/09/06 03:34:45;;;;;;;0.35;0.35;;;17.00;99.90;;;;;;5113837;28;20059;-80
2023/09/06 03:37:11;;;;;;;0.30;0.30;;;16.90;99.90;;;;;;5112626;28;20084;-81
2023/09/06 03:39:43;;;;;;;0.30;0.30;;;16.90;99.90;;;;;;5113891;28;20391;-81
2023/09/06 03:42:10;;;;;;;0.30;0.30;;;16.90;99.90;;;;;;5114364;28;20043;-80
2023/09/06 03:44:38;;;;;;;0.40;0.40;;;16.80;99.90;;;;;;5113840;28;20071;-80
2023/09/06 03:47:13;;;;;;;0.30;0.30;;;16.80;99.90;;;;;;5113633;28;20080;-80
2023/09/06 03:49:40;;;;;;;0.30;0.30;;;16.80;99.90;;;;;;5112906;28;20035;-80
2023/09/06 03:52:07;;;;;;;0.38;0.38;;;16.80;99.90;;;;;;5113775;28;20039;-81
2023/09/06 03:54:36;;;;;;;0.40;0.40;;;16.80;99.90;;;;;;5113635;28;20090;-81
2023/09/06 03:57:07;;;;;;;0.68;0.68;;;16.80;99.90;;;;;;5113958;28;20108;-80
2023/09/06 03:59:35;;;;;;;0.50;0.50;;;16.70;99.90;;;;;;5113983;28;20044;-81
2023/09/06 04:02:10;;;;;;;0.30;0.30;;;16.70;99.90;;;;;;5117209;28;20090;-80
2023/09/06 04:04:36;;;;;;;0.43;0.43;;;16.70;99.90;;;;;;5117437;28;20379;-81
2023/09/06 04:07:02;;;;;;;0.43;0.40;;;16.70;99.90;;;;;;5117271;28;20039;-80
2023/09/06 04:09:32;;;;;;;0.30;0.30;;;16.70;99.90;;;;;;5116855;28;20122;-80
2023/09/06 04:11:58;;;;;;;0.30;0.30;;;16.60;99.90;;;;;;5117251;28;20123;-80
2023/09/06 04:14:24;;;;;;;;;;;16.60;99.90;;;;;;5118064;28;20047;-81
2023/09/06 04:16:50;;;;;;;0.32;0.32;;;16.60;99.90;;;;;;5116879;28;20356;-81
2023/09/06 04:19:16;;;;;;;0.30;0.30;;;16.70;99.90;;;;;;5117225;28;20039;-81
2023/09/06 04:21:41;;;;;;;0.40;0.40;;;16.50;99.90;;;;;;5117042;28;20510;-80
2023/09/06 04:24:07;;;;;;;0.43;0.43;;;16.50;99.90;;;;;;5117102;28;20479;-81
2023/09/06 04:26:34;;;;;;;0.43;0.43;;;16.50;99.90;;;;;;5117249;28;20375;-81
2023/09/06 04:29:03;;;;;;;0.63;0.63;;;16.50;99.90;;;;;;5116986;28;20040;-81
2023/09/06 04:31:30;;;;;;;0.30;0.30;;;16.50;99.90;;;;;;5116939;28;20055;-81
2023/09/06 04:33:58;;;;;;;1.55;0.75;;;16.50;99.90;;;;;;5116682;28;20062;-81
2023/09/06 04:36:23;;;;;;;0.40;0.40;;;16.50;99.90;;;;;;5116748;28;20122;-80
2023/09/06 04:38:49;;;;;;;0.67;0.67;;;16.50;99.90;;;;;;5116853;28;20130;-80
2023/09/06 04:41:14;;;;;;;0.30;0.30;;;16.50;99.90;;;;;;5117094;28;20044;-81
2023/09/06 04:43:40;;;;;;;0.63;0.37;;;16.40;99.90;;;;;;5117006;28;20036;-80
2023/09/06 04:46:06;;;;;;;0.37;0.37;;;16.50;99.90;;;;;;5116770;28;20028;-80
2023/09/06 04:48:32;;;;;;;0.40;0.40;;;16.40;99.90;;;;;;5116615;28;20058;-81
2023/09/06 04:50:59;;;;;;;0.40;0.40;;;16.40;99.90;;;;;;5116506;28;20126;-80
2023/09/06 04:53:25;;;;;;;0.40;0.40;;;16.40;99.90;;;;;;5116867;28;20062;-80
2023/09/06 04:55:52;;;;;;;0.40;0.40;;;16.30;99.90;;;;;;5116746;28;20468;-79
2023/09/06 04:58:19;;;;;;;0.32;0.32;;;16.30;99.90;;;;;;5116462;28;20043;-80
2023/09/06 05:00:47;;;;;;;0.22;0.22;;;16.30;99.90;;;;;;5116380;28;20035;-80
2023/09/06 05:03:17;;;;;;;0.30;0.30;;;16.30;99.90;;;;;;5115950;28;20395;-80
2023/09/06 05:05:45;;;;;;;0.30;0.30;;;16.20;99.90;;;;;;5116271;28;20078;-79
2023/09/06 05:08:10;;;;;;;0.30;0.30;;;16.30;99.90;;;;;;5116028;28;20055;-79
2023/09/06 05:10:37;;;;;;;0.60;0.60;;;16.20;99.90;;;;;;5116606;28;20165;-79
2023/09/06 05:13:07;;;;;;;0.30;0.30;;;16.20;99.90;;;;;;5114906;28;20051;-79
2023/09/06 05:15:34;;;;;;;0.30;0.30;;;16.20;99.90;;;;;;5116224;28;20043;-80
2023/09/06 05:17:59;;;;;;;;;;;16.20;99.90;;;;;;5116262;28;20035;-80
2023/09/06 05:20:28;;;;;;;0.47;0.47;;;16.10;99.90;;;;;;5115972;28;19923;-80
2023/09/06 05:23:07;;;;;;;0.38;0.38;;;16.10;99.90;;;;;;5115894;28;20099;-80
2023/09/06 05:25:33;;;;;;;0.30;0.30;;;16.10;99.90;;;;;;5115906;28;20039;-79
2023/09/06 05:28:12;;;;;;;0.35;0.35;;;16.20;99.90;;;;;;5115816;28;20058;-80
2023/09/06 05:30:46;;;;;;;0.30;0.30;;;16.20;99.90;;;;;;5115463;28;20434;-79
2023/09/06 05:33:15;;;;;;;1.27;0.70;;;16.20;99.90;;;;;;5115763;28;20035;-80
2023/09/06 05:35:43;;;;;;;0.50;0.50;;;16.20;99.90;;;;;;5115723;28;20035;-79
2023/09/06 05:38:11;;;;;;;0.30;0.30;;;16.20;99.90;;;;;;5115458;28;20032;-80
2023/09/06 05:40:40;;;;;;;0.30;0.30;;;16.20;99.90;;;;;;5115252;28;20035;-79
2023/09/06 05:43:06;;;;;;;0.45;0.45;;;16.20;99.90;;;;;;5115330;28;20043;-79
2023/09/06 05:45:31;;;;;;;1.07;0.53;;;16.20;99.90;;;;;;5115213;28;20039;-80
2023/09/06 05:47:57;;;;;;;0.40;0.40;;;16.20;99.90;;;;;;5115855;28;20273;-80
2023/09/06 05:50:23;;;;;;;0.30;0.30;;;16.20;99.90;;;;;;5115219;28;20035;-79
2023/09/06 05:52:49;;;;;;;0.53;0.53;;;16.30;99.90;;;;;;5115308;28;20046;-80
2023/09/06 05:55:14;;;;;;;0.33;0.33;;;16.30;99.90;;;;;;5115421;28;20028;-80
2023/09/06 05:57:40;;;;;;;0.40;0.40;;;16.30;99.90;;;;;;5115102;28;20126;-80
2023/09/06 06:00:12;;;;;;;0.30;0.30;;;16.40;99.90;;;;;;5115565;28;20043;-80
2023/09/06 06:02:39;;;;;;;0.43;0.43;;;16.50;99.90;;;;;;5115442;28;20118;-79
2023/09/06 06:05:05;;;;;;;0.30;0.30;;;16.60;99.90;;;;;;5114924;28;20463;-80
2023/09/06 06:07:32;;;;;;;0.43;0.43;;;16.60;99.90;;;;;;5114797;28;20039;-80
2023/09/06 06:09:57;;;;;;;0.30;0.30;;;16.60;99.90;;;;;;5115201;28;20039;-79
2023/09/06 06:12:24;;;;;;;0.37;0.37;;;16.70;99.90;;;;;;5113933;28;20394;-79
2023/09/06 06:14:54;;;;;;;0.32;0.32;;;16.80;99.90;;;;;;5114915;28;20047;-79
2023/09/06 06:17:20;;;;;;;0.30;0.30;;;16.80;99.90;;;;;;5114962;28;20046;-80
2023/09/06 06:19:47;;;;;;;0.47;0.47;;;16.90;99.90;;;;;;5114638;28;20035;-80
2023/09/06 06:22:13;;;;;;;0.40;0.40;;;17.00;99.90;;;;;;5114719;28;20046;-80
2023/09/06 06:24:41;;;;;;;0.47;0.47;;;17.10;99.90;;;;;;5114290;28;20040;-80
2023/09/06 06:27:06;;;;;;;0.57;0.57;;;17.20;99.90;;;;;;5114638;28;20083;-79
2023/09/06 06:29:32;;;;;;;0.43;0.43;;;17.20;99.90;;;;;;5115023;28;20130;-80
2023/09/06 06:31:58;;;;;;;0.30;0.30;;;17.30;99.90;;;;;;5114315;28;20550;-80
2023/09/06 06:34:24;;;;;;;0.43;0.43;;;17.30;99.90;;;;;;5114888;28;20119;-79
2023/09/06 06:36:50;;;;;;;0.30;0.30;;;17.40;99.90;;;;;;5114449;28;20468;-80
2023/09/06 06:39:17;;;;;;;0.82;0.82;;;17.50;99.90;;;;;;5114476;28;20051;-80
2023/09/06 06:41:44;;;;;;;0.30;0.30;;;17.70;99.90;;;;;;5113358;28;20089;-80
2023/09/06 06:44:10;;;;;;;0.40;0.38;;;17.80;99.90;;;;;;5114476;28;20047;-80
2023/09/06 06:46:38;;;;;;;0.50;0.50;;;17.90;99.90;;;;;;5113291;28;20043;-80
2023/09/06 06:49:04;;;;;;;0.57;0.57;;;18.10;99.90;;;;;;5114439;28;20046;-80
2023/09/06 06:51:34;;;;;;;0.43;0.43;;;18.20;99.90;;;;;;5114363;28;20036;-80
2023/09/06 06:54:02;;;;;;;0.65;0.50;;;18.30;99.90;;;;;;5114143;28;20039;-80
2023/09/06 06:56:27;;;;;;;0.57;0.57;;;18.50;99.90;;;;;;5114808;28;20035;-80
2023/09/06 06:58:53;;;;;;;0.30;0.30;;;18.60;99.90;;;;;;5114378;28;20036;-79
2023/09/06 07:01:20;;;;;;;0.50;0.50;;;18.80;99.90;;;;;;5114268;28;20031;-80
2023/09/06 07:03:46;;;;;;;0.85;0.50;;;18.90;99.90;;;;;;5113904;28;20463;-80
2023/09/06 07:06:12;;;;;;;0.40;0.40;;;19.10;99.90;;;;;;5114374;28;20055;-80
2023/09/06 07:08:38;;;;;;;0.30;0.30;;;19.20;99.90;;;;;;5112946;28;20056;-80
2023/09/06 07:11:05;;;;;;;0.40;0.40;;;19.30;99.90;;;;;;5114584;28;20139;-79
2023/09/06 07:13:31;;;;;;;0.40;0.40;;;19.50;99.90;;;;;;5113855;28;20092;-80
2023/09/06 07:15:57;;;;;;;0.40;0.40;;;19.60;99.90;;;;;;5114167;28;20051;-80
2023/09/06 07:18:22;;;;;;;0.37;0.37;;;19.70;99.90;;;;;;5113698;28;20095;-80
2023/09/06 07:20:48;;;;;;;0.40;0.40;;;19.80;99.90;;;;;;5113974;28;20046;-79
2023/09/06 07:23:14;;;;;;;0.30;0.30;;;19.90;99.90;;;;;;5114134;28;20031;-80
2023/09/06 07:25:44;;;;;;;0.77;0.40;;;20.00;99.90;;;;;;5113649;28;20050;-80
2023/09/06 07:28:09;;;;;;;0.30;0.30;;;20.20;99.90;;;;;;5114007;28;20035;-80
2023/09/06 07:30:35;;;;;;;0.30;0.30;;;20.30;99.90;;;;;;5113958;28;20494;-80
2023/09/06 07:33:01;;;;;;;0.50;0.50;;;20.40;99.90;;;;;;5113874;28;20140;-81
2023/09/06 07:35:27;;;;;;;0.40;0.40;;;20.50;99.90;;;;;;5115053;28;20040;-80
2023/09/06 07:37:53;;;;;;;0.43;0.43;;;20.60;99.90;;;;;;5117869;28;20043;-79
2023/09/06 07:40:19;;;;;;;0.30;0.30;;;20.70;99.90;;;;;;5118148;28;20613;-80
2023/09/06 07:42:45;;;;;;;0.30;0.30;;;20.80;99.90;;;;;;5117894;28;20066;-80
2023/09/06 07:45:11;;;;;;;0.40;0.40;;;20.90;99.90;;;;;;5117862;28;20455;-81
2023/09/06 07:47:37;;;;;;;0.40;0.38;;;21.10;99.90;;;;;;5118046;28;20051;-80
2023/09/06 07:50:06;;;;;;;0.60;0.60;;;21.20;99.90;;;;;;5117784;28;20039;-81
2023/09/06 07:52:33;;;;;;;0.30;0.30;;;21.30;99.90;;;;;;5117651;28;20035;-80
2023/09/06 07:54:58;;;;;;;0.30;0.30;;;21.40;99.90;;;;;;5117388;28;20044;-80
2023/09/06 07:57:24;;;;;;;0.45;0.38;;;21.50;99.90;;;;;;5116375;28;20039;-80
2023/09/06 07:59:50;;;;;;;0.40;0.40;;;21.60;99.90;;;;;;5116511;28;20038;-80
2023/09/06 08:02:15;;;;;;;0.33;0.33;;;21.70;99.90;;;;;;5117809;28;20383;-80
2023/09/06 08:04:41;;;;;;;0.97;0.33;;;21.80;99.90;;;;;;5117408;28;20173;-81
2023/09/06 08:07:08;;;;;;;0.20;0.20;;;21.90;99.90;;;;;;5117382;28;20035;-80
2023/09/06 08:09:34;;;;;;;0.20;0.20;;;22.10;99.90;;;;;;5117646;27;20051;-80
2023/09/06 08:12:00;;;;;;;0.50;0.50;;;22.20;99.90;;;;;;5117297;28;20075;-80
2023/09/06 08:14:26;;;;;;;0.30;0.30;;;22.30;99.90;;;;;;5117623;28;20075;-80
2023/09/06 08:16:51;;;;;;;0.57;0.57;;;22.40;99.90;;;;;;5116975;28;20466;-80
2023/09/06 08:19:17;;;;;;;0.33;0.33;;;22.50;99.90;;;;;;5117457;28;20047;-81
2023/09/06 08:21:42;;;;;;;0.40;0.40;;;22.60;99.90;;;;;;5117169;28;20517;-80
2023/09/06 08:24:08;;;;;;;0.20;0.20;;;22.80;99.90;;;;;;5117079;28;20520;-81
2023/09/06 08:26:34;;;;;;;0.30;0.30;;;22.90;99.90;;;;;;5117562;28;20069;-80
2023/09/06 08:29:00;;;;;;;0.30;0.30;;;23.00;99.90;;;;;;5117089;28;20126;-80
2023/09/06 08:31:26;;;;;;;0.30;0.30;;;23.10;99.90;;;;;;5117071;28;20071;-81
2023/09/06 08:33:51;;;;;;;0.50;0.50;;;23.30;99.90;;;;;;5117115;28;20568;-80
2023/09/06 08:36:18;;;;;;;0.20;0.20;;;23.40;99.90;;;;;;5116955;28;20050;-81
2023/09/06 08:38:43;;;;;;;0.32;0.32;;;23.50;99.90;;;;;;5116379;28;20107;-81
2023/09/06 08:41:09;;;;;;;0.30;0.30;;;23.60;99.90;;;;;;5116733;28;20031;-81
2023/09/06 08:43:38;;;;;;;0.40;0.40;;;23.70;99.90;;;;;;5116714;28;20110;-81
2023/09/06 08:46:11;;;;;;;0.30;0.30;;;23.80;99.90;;;;;;5116361;28;20157;-81
2023/09/06 08:48:37;;;;;;;0.30;0.30;;;23.90;99.90;;;;;;5116652;28;20054;-81
2023/09/06 08:51:06;;;;;;;0.28;0.28;;;24.00;99.90;;;;;;5116359;28;20048;-81
2023/09/06 08:53:34;;;;;;;0.20;0.20;;;24.10;99.90;;;;;;5116622;28;20040;-80
2023/09/06 08:56:03;;;;;;;0.20;0.20;;;24.20;99.90;;;;;;5116876;28;20039;-80
2023/09/06 08:58:30;;;;;;;0.45;0.45;;;24.30;99.90;;;;;;5116413;28;20382;-80
2023/09/06 09:00:57;;;;;;;0.25;0.25;;;24.40;99.90;;;;;;5116611;28;20547;-81
2023/09/06 09:03:22;;;;;;;0.20;0.20;;;24.50;99.90;;;;;;5116564;28;20035;-81
2023/09/06 09:05:48;;;;;;;0.80;0.77;;;24.60;99.90;;;;;;5115170;28;20431;-80
2023/09/06 09:08:14;;;;;;;0.30;0.30;;;24.70;99.90;;;;;;5116249;28;20048;-80
2023/09/06 09:10:39;;;;;;;0.40;0.40;;;24.80;99.90;;;;;;5116202;28;20050;-80
2023/09/06 09:13:12;;;;;;;0.77;0.30;;;24.90;99.90;;;;;;5098096;28;20616;-81
2023/09/06 09:15:37;;;;;;;0.40;0.40;;;25.00;99.90;;;;;;5115976;28;20040;-81
2023/09/06 09:18:13;;;;;;;0.40;0.40;;;25.10;99.90;;;;;;5116103;28;20028;-81
2023/09/06 09:20:43;;;;;;;0.30;0.30;;;25.20;99.90;;;;;;5115814;28;20097;-81
2023/09/06 09:23:16;;;;;;;0.47;0.47;;;25.30;99.90;;;;;;5116367;28;20122;-80
2023/09/06 09:25:51;;;;;;;0.35;0.35;;;25.40;99.90;;;;;;5115964;28;20070;-81
2023/09/06 09:28:17;;;;;;;0.20;0.20;;;25.40;99.90;;;;;;5115892;28;20114;-81
2023/09/06 09:30:46;;;;;;;0.20;0.20;;;25.50;99.90;;;;;;5115934;28;20039;-81
2023/09/06 09:33:11;;;;;;;0.40;0.40;;;25.50;99.90;;;;;;5115761;28;20547;-81
2023/09/06 09:35:40;;;;;;;0.20;0.20;;;25.70;99.90;;;;;;5115732;27;20169;-81
2023/09/06 09:38:10;;;;;;;0.20;0.20;;;25.80;99.90;;;;;;5115591;28;20039;-81
2023/09/06 09:40:36;;;;;;;0.88;0.85;;;25.80;99.90;;;;;;5116009;28;20040;-82
2023/09/06 09:43:04;;;;;;;0.22;0.22;;;26.00;99.90;;;;;;5115537;28;20118;-81
2023/09/06 09:45:43;;;;;;;0.52;0.45;;;26.10;99.90;;;;;;5115449;28;20368;-81
2023/09/06 09:48:09;;;;;;;0.40;0.40;;;26.10;99.90;;;;;;5115531;28;20047;-81
2023/09/06 09:50:41;;;;;;;0.30;0.30;;;26.30;99.90;;;;;;5115265;28;20034;-81
2023/09/06 09:53:09;;;;;;;0.40;0.40;;;26.30;99.90;;;;;;5115416;28;20115;-81
2023/09/06 09:55:40;;;;;;;0.70;0.70;;;26.40;99.90;;;;;;5115463;28;20365;-81
2023/09/06 09:58:09;;;;;;;0.30;0.30;;;26.50;99.90;;;;;;5114507;28;20040;-81
2023/09/06 10:00:39;;;;;;;0.20;0.20;;;26.50;99.90;;;;;;5115226;28;20392;-81
2023/09/06 10:03:05;;;;;;;0.20;0.20;;;26.60;99.90;;;;;;5113982;28;20047;-81
2023/09/06 10:05:31;;;;;;;0.20;0.20;;;26.60;99.90;;;;;;5114934;28;20035;-81
2023/09/06 10:08:00;;;;;;;0.30;0.30;;;26.60;99.90;;;;;;5114895;28;20051;-81
2023/09/06 10:10:27;;;;;;;0.40;0.40;;;26.70;99.90;;;;;;5115001;28;20040;-81
2023/09/06 10:12:56;;;;;;;1.45;0.30;;;26.70;99.90;;;;;;5114858;28;20481;-81
2023/09/06 10:15:24;;;;;;;0.25;0.25;;;26.80;99.90;;;;;;5114861;28;20483;-81
2023/09/06 10:17:54;;;;;;;0.40;0.40;;;26.90;99.90;;;;;;5113648;28;20040;-81
2023/09/06 10:20:23;;;;;;;0.30;0.30;;;27.00;99.90;;;;;;5114941;28;20044;-81
2023/09/06 10:22:53;;;;;;;0.30;0.30;;;27.10;99.90;;;;;;5114833;28;20490;-81
2023/09/06 10:25:19;;;;;;;0.20;0.20;;;27.20;99.90;;;;;;5114844;28;20123;-81
2023/09/06 10:27:52;;;;;;;0.20;0.20;;;27.30;99.90;;;;;;5115198;28;20114;-81
2023/09/06 10:30:45;;;;;;;0.20;0.20;;;27.30;99.90;;;;;;5114742;28;20035;-82
2023/09/06 10:33:33;;;;;;;0.20;0.20;;;27.40;99.90;;;;;;5114652;28;20039;-81
2023/09/06 10:36:05;;;;;;;0.60;0.40;;;27.50;99.90;;;;;;5114356;28;20035;-81
2023/09/06 10:38:30;;;;;;;0.30;0.30;;;27.50;99.90;;;;;;5114529;28;20032;-81
2023/09/06 10:40:56;;;;;;;0.30;0.30;;;27.60;99.90;;;;;;5114531;28;20099;-81
2023/09/06 10:43:29;;;;;;;0.30;0.30;;;27.60;99.90;;;;;;5114558;28;20663;-81
2023/09/06 10:46:07;;;;;;;0.30;0.30;;;27.70;99.90;;;;;;5114485;28;20040;-81
2023/09/06 10:48:32;;;;;;;0.28;0.28;;;27.80;99.90;;;;;;5114443;28;20047;-81
2023/09/06 10:51:06;;;;;;;0.30;0.30;;;27.80;99.90;;;;;;5114468;28;20031;-81
2023/09/06 10:53:36;;;;;;;0.40;0.40;;;27.90;99.90;;;;;;5114355;28;20061;-81
2023/09/06 10:56:03;;;;;;;0.47;0.40;;;27.90;99.90;;;;;;5114638;28;20039;-81
2023/09/06 10:58:30;;;;;;;0.40;0.40;;;27.90;99.90;;;;;;5114211;28;20042;-81
2023/09/06 11:01:21;;;;;;;0.28;0.28;;;28.00;99.90;;;;;;5114227;28;20070;-81
2023/09/06 11:03:48;;;;;;;0.20;0.20;;;28.10;99.90;;;;;;5114268;28;20051;-81
2023/09/06 11:06:14;;;;;;;0.65;0.20;;;28.10;99.90;;;;;;5114707;28;20048;-81
2023/09/06 11:08:40;;;;;;;0.30;0.30;;;28.20;99.90;;;;;;5113098;28;20059;-81
2023/09/06 11:11:09;;;;;;;0.20;0.20;;;28.20;99.90;;;;;;5118108;28;20055;-81
2023/09/06 11:13:36;;;;;;;0.20;0.20;;;28.30;99.90;;;;;;5118490;28;20130;-82
2023/09/06 11:16:03;;;;;;;0.40;0.40;;;28.40;99.90;;;;;;5118480;28;20054;-83
2023/09/06 11:18:32;;;;;;;0.20;0.20;;;28.50;99.90;;;;;;5118319;28;20040;-82
2023/09/06 11:20:59;;;;;;;0.20;0.20;;;28.60;99.90;;;;;;5118366;28;20093;-81
2023/09/06 11:23:26;;;;;;;0.73;0.73;;;28.60;99.90;;;;;;5117143;28;20046;-82
2023/09/06 11:25:58;;;;;;;0.20;0.20;;;28.60;99.90;;;;;;5116955;28;20035;-81
2023/09/06 11:28:24;;;;;;;0.20;0.20;;;28.60;99.90;;;;;;5118870;28;20035;-82
2023/09/06 11:30:50;;;;;;;;;;;28.70;99.90;;;;;;5118500;28;20097;-81
2023/09/06 11:33:18;;;;;;;0.40;0.40;;;28.70;99.90;;;;;;5116989;28;19972;-81
2023/09/06 11:35:56;;;;;;;0.20;0.20;;;28.80;99.90;;;;;;5118051;28;20032;-81
2023/09/06 11:38:28;;;;;;;0.30;0.30;;;28.90;99.90;;;;;;5117939;28;20040;-81
2023/09/06 11:40:56;;;;;;;0.40;0.40;;;29.00;99.90;;;;;;5117999;28;20036;-81
2023/09/06 11:43:23;;;;;;;1.60;0.40;;;29.10;99.90;;;;;;5118048;28;20101;-81
2023/09/06 11:46:03;;;;;;;0.30;0.30;;;29.10;99.90;;;;;;5117843;28;20079;-81
2023/09/06 11:48:31;;;;;;;0.68;0.30;;;29.20;99.90;;;;;;5117773;28;20038;-83
2023/09/06 11:51:10;;;;;;;0.20;0.20;;;29.20;99.90;;;;;;5117759;28;20040;-81
2023/09/06 11:53:41;;;;;;;0.43;0.20;;;29.30;99.90;;;;;;5118021;28;20046;-81
2023/09/06 11:56:08;;;;;;;0.43;0.35;;;29.30;99.90;;;;;;5117443;28;20089;-81
2023/09/06 11:58:43;;;;;;;0.30;0.30;;;29.30;99.90;;;;;;5117478;28;20063;-81
2023/09/06 12:01:11;;;;;;;0.30;0.30;;;29.40;99.90;;;;;;5117577;28;20035;-81
2023/09/06 12:03:44;;;;;;;0.32;0.32;;;29.50;99.90;;;;;;5117409;28;20394;-81
2023/09/06 12:06:10;;;;;;;0.30;0.30;;;29.50;99.90;;;;;;5117931;28;20091;-81
2023/09/06 12:08:38;;;;;;;0.30;0.30;;;29.50;99.90;;;;;;5117059;28;20134;-81
2023/09/06 12:11:11;;;;;;;0.20;0.20;;;29.60;99.90;;;;;;5117328;28;20040;-82
2023/09/06 12:13:38;;;;;;;1.00;0.43;;;29.60;99.90;;;;;;5117335;28;20079;-81
2023/09/06 12:16:09;;;;;;;0.20;0.20;;;29.60;99.90;;;;;;5117130;28;20417;-82
2023/09/06 12:18:35;;;;;;;0.20;0.20;;;29.70;99.90;;;;;;5117397;28;20122;-81
2023/09/06 12:21:05;;;;;;;0.20;0.20;;;29.70;99.90;;;;;;5116429;28;20040;-81
2023/09/06 12:23:32;;;;;;;0.20;0.20;;;29.70;99.90;;;;;;5117160;28;20036;-81
2023/09/06 12:26:02;;;;;;;0.20;0.20;;;29.80;99.90;;;;;;5117022;28;20038;-81
2023/09/06 12:28:29;;;;;;;0.80;0.77;;;29.80;99.90;;;;;;5117014;28;20126;-81
2023/09/06 12:31:05;;;;;;;0.20;0.20;;;29.80;99.90;;;;;;5116957;28;20053;-81
2023/09/06 12:33:31;;;;;;;0.20;0.20;;;29.90;99.90;;;;;;5115940;28;20058;-82
2023/09/06 12:36:00;;;;;;;0.20;0.20;;;29.90;99.90;;;;;;5116930;28;20070;-83
2023/09/06 12:38:27;;;;;;;0.20;0.20;;;29.90;99.90;;;;;;5116835;28;20329;-81
2023/09/06 12:40:53;;;;;;;0.40;0.40;;;29.90;99.90;;;;;;5116836;28;20050;-80
2023/09/06 12:43:20;;;;;;;1.25;0.43;;;30.00;99.90;;;;;;5115863;28;20039;-82
2023/09/06 12:45:47;;;;;;;0.63;0.50;;;30.00;99.90;;;;;;5116650;28;20044;-83
2023/09/06 12:48:14;;;;;;;0.20;0.20;;;30.00;99.90;;;;;;5115744;28;20042;-81
2023/09/06 12:50:39;;;;;;;;;;;30.00;99.90;;;;;;5117017;28;20050;-81
2023/09/06 12:53:07;;;;;;;1.05;0.68;;;30.10;99.90;;;;;;5116520;28;19915;-80